sensor_id;sensor_type;location;lat;lon;timestamp;temperature;humidity
1225;DHT22;602;48.000;7.840;2022-08-19T00:01:21;20.20;99.90
1225;DHT22;602;48.000;7.840;2022-08-19T00:03:48;20.10;99.90
1225;DHT22;602;48.000;7.840;2022-08-19T00:06:15;20.20;99.90
1225;DHT22;602;48.000;7.840;2022-08-19T00:08:43;20.20;99.90
1225;DHT22;602;48.000;7.840;2022-08-19T00:11:10;20.20;99.90
1225;DHT22;602;48.000;7.840;2022-08-19T00:13:38;20.20;99.90
1225;DHT22;602;48.000;7.840;2022-08-19T00:16:05;20.10;99.90
1225;DHT22;602;48.000;7.840;2022-08-19T00:18:34;19.90;99.90
1225;DHT22;602;48.000;7.840;2022-08-19T00:21:01;20.00;99.90
1225;DHT22;602;48.000;7.840;2022-08-19T00:23:28;20.10;99.90
1225;DHT22;602;48.000;7.840;2022-08-19T00:25:55;20.10;99.90
1225;DHT22;602;48.000;7.840;2022-08-19T00:28:22;20.10;99.90
1225;DHT22;602;48.000;7.840;2022-08-19T00:30:49;20.10;99.90
1225;DHT22;602;48.000;7.840;2022-08-19T00:33:17;20.20;99.90
1225;DHT22;602;48.000;7.840;2022-08-19T00:35:45;20.30;99.90
1225;DHT22;602;48.000;7.840;2022-08-19T00:38:12;20.40;99.90
1225;DHT22;602;48.000;7.840;2022-08-19T00:40:39;20.40;99.90
1225;DHT22;602;48.000;7.840;2022-08-19T00:43:09;20.40;99.90
1225;DHT22;602;48.000;7.840;2022-08-19T00:45:40;20.40;99.90
1225;DHT22;602;48.000;7.840;2022-08-19T00:48:09;20.40;99.90
1225;DHT22;602;48.000;7.840;2022-08-19T00:50:36;20.40;99.90
1225;DHT22;602;48.000;7.840;2022-08-19T00:53:06;20.40;99.90
1225;DHT22;602;48.000;7.840;2022-08-19T00:55:33;20.40;99.90
1225;DHT22;602;48.000;7.840;2022-08-19T00:58:03;20.50;99.90
1225;DHT22;602;48.000;7.840;2022-08-19T01:00:32;20.40;99.90
1225;DHT22;602;48.000;7.840;2022-08-19T01:03:00;20.50;99.90
1225;DHT22;602;48.000;7.840;2022-08-19T01:05:29;20.40;99.90
1225;DHT22;602;48.000;7.840;2022-08-19T01:07:58;20.40;99.90
1225;DHT22;602;48.000;7.840;2022-08-19T01:10:28;20.40;99.90
1225;DHT22;602;48.000;7.840;2022-08-19T01:12:58;20.20;99.90
1225;DHT22;602;48.000;7.840;2022-08-19T01:15:30;20.10;99.90
1225;DHT22;602;48.000;7.840;2022-08-19T01:18:00;20.10;99.90
1225;DHT22;602;48.000;7.840;2022-08-19T01:20:28;20.00;99.90
1225;DHT22;602;48.000;7.840;2022-08-19T01:22:58;20.10;99.90
1225;DHT22;602;48.000;7.840;2022-08-19T01:25:39;20.10;99.90
1225;DHT22;602;48.000;7.840;2022-08-19T01:28:08;20.10;99.90
1225;DHT22;602;48.000;7.840;2022-08-19T01:30:35;20.20;99.90
1225;DHT22;602;48.000;7.840;2022-08-19T01:33:02;20.20;99.90
1225;DHT22;602;48.000;7.840;2022-08-19T01:35:31;20.30;99.90
1225;DHT22;602;48.000;7.840;2022-08-19T01:38:02;20.30;99.90
1225;DHT22;602;48.000;7.840;2022-08-19T01:40:36;20.20;99.90
1225;DHT22;602;48.000;7.840;2022-08-19T01:43:04;20.30;99.90
1225;DHT22;602;48.000;7.840;2022-08-19T01:45:33;20.30;99.90
1225;DHT22;602;48.000;7.840;2022-08-19T01:48:00;20.30;99.90
1225;DHT22;602;48.000;7.840;2022-08-19T01:50:30;20.30;99.90
1225;DHT22;602;48.000;7.840;2022-08-19T01:52:57;20.40;99.90
1225;DHT22;602;48.000;7.840;2022-08-19T01:55:26;20.30;99.90
1225;DHT22;602;48.000;7.840;2022-08-19T01:57:57;20.30;99.90
1225;DHT22;602;48.000;7.840;2022-08-19T02:00:27;20.40;99.90
1225;DHT22;602;48.000;7.840;2022-08-19T02:02:54;20.20;99.90
1225;DHT22;602;48.000;7.840;2022-08-19T02:05:22;20.10;99.90
1225;DHT22;602;48.000;7.840;2022-08-19T02:07:49;20.20;99.90
1225;DHT22;602;48.000;7.840;2022-08-19T02:10:18;20.30;99.90
1225;DHT22;602;48.000;7.840;2022-08-19T02:12:47;20.30;99.90
1225;DHT22;602;48.000;7.840;2022-08-19T02:15:14;20.30;99.90
1225;DHT22;602;48.000;7.840;2022-08-19T02:17:42;20.20;99.90
1225;DHT22;602;48.000;7.840;2022-08-19T02:20:10;20.10;99.90
1225;DHT22;602;48.000;7.840;2022-08-19T02:22:38;20.10;99.90
1225;DHT22;602;48.000;7.840;2022-08-19T02:25:07;20.10;99.90
1225;DHT22;602;48.000;7.840;2022-08-19T02:27:35;20.20;99.90
1225;DHT22;602;48.000;7.840;2022-08-19T02:30:05;20.30;99.90
1225;DHT22;602;48.000;7.840;2022-08-19T02:32:32;20.20;99.90
1225;DHT22;602;48.000;7.840;2022-08-19T02:35:00;20.30;99.90
1225;DHT22;602;48.000;7.840;2022-08-19T02:37:27;20.20;99.90
1225;DHT22;602;48.000;7.840;2022-08-19T02:40:11;20.20;99.90
1225;DHT22;602;48.000;7.840;2022-08-19T02:42:38;20.10;99.90
1225;DHT22;602;48.000;7.840;2022-08-19T02:45:08;20.10;99.90
1225;DHT22;602;48.000;7.840;2022-08-19T02:47:35;20.10;99.90
1225;DHT22;602;48.000;7.840;2022-08-19T02:50:03;20.10;99.90
1225;DHT22;602;48.000;7.840;2022-08-19T02:52:32;20.10;99.90
1225;DHT22;602;48.000;7.840;2022-08-19T02:54:59;20.00;99.90
1225;DHT22;602;48.000;7.840;2022-08-19T02:57:26;20.00;99.90
1225;DHT22;602;48.000;7.840;2022-08-19T02:59:53;20.00;99.90
1225;DHT22;602;48.000;7.840;2022-08-19T03:02:21;20.00;99.90
1225;DHT22;602;48.000;7.840;2022-08-19T03:04:49;20.20;99.90
1225;DHT22;602;48.000;7.840;2022-08-19T03:07:17;20.20;99.90
1225;DHT22;602;48.000;7.840;2022-08-19T03:09:45;20.20;99.90
1225;DHT22;602;48.000;7.840;2022-08-19T03:12:12;20.30;99.90
1225;DHT22;602;48.000;7.840;2022-08-19T03:14:39;20.30;99.90
1225;DHT22;602;48.000;7.840;2022-08-19T03:17:06;20.30;99.90
1225;DHT22;602;48.000;7.840;2022-08-19T03:19:34;20.20;99.90
1225;DHT22;602;48.000;7.840;2022-08-19T03:22:01;20.10;99.90
1225;DHT22;602;48.000;7.840;2022-08-19T03:24:30;20.20;99.90
1225;DHT22;602;48.000;7.840;2022-08-19T03:26:57;20.10;99.90
1225;DHT22;602;48.000;7.840;2022-08-19T03:29:25;20.10;99.90
1225;DHT22;602;48.000;7.840;2022-08-19T03:31:52;20.00;99.90
1225;DHT22;602;48.000;7.840;2022-08-19T03:34:23;19.90;99.90
1225;DHT22;602;48.000;7.840;2022-08-19T03:36:54;20.00;99.90
1225;DHT22;602;48.000;7.840;2022-08-19T03:39:21;20.00;99.90
1225;DHT22;602;48.000;7.840;2022-08-19T03:41:49;20.00;99.90
1225;DHT22;602;48.000;7.840;2022-08-19T03:44:18;19.90;99.90
1225;DHT22;602;48.000;7.840;2022-08-19T03:46:47;20.00;99.90
1225;DHT22;602;48.000;7.840;2022-08-19T03:49:15;20.10;99.90
1225;DHT22;602;48.000;7.840;2022-08-19T03:51:42;20.10;99.90
1225;DHT22;602;48.000;7.840;2022-08-19T03:54:14;20.10;99.90
1225;DHT22;602;48.000;7.840;2022-08-19T03:56:43;20.10;99.90
1225;DHT22;602;48.000;7.840;2022-08-19T03:59:12;20.10;99.90
1225;DHT22;602;48.000;7.840;2022-08-19T04:01:40;20.10;99.90
1225;DHT22;602;48.000;7.840;2022-08-19T04:04:07;20.10;99.90
1225;DHT22;602;48.000;7.840;2022-08-19T04:06:36;20.20;99.90
1225;DHT22;602;48.000;7.840;2022-08-19T04:09:05;20.20;99.90
1225;DHT22;602;48.000;7.840;2022-08-19T04:11:37;20.20;99.90
1225;DHT22;602;48.000;7.840;2022-08-19T04:14:05;20.30;99.90
1225;DHT22;602;48.000;7.840;2022-08-19T04:16:33;20.20;99.90
1225;DHT22;602;48.000;7.840;2022-08-19T04:19:02;20.30;99.90
1225;DHT22;602;48.000;7.840;2022-08-19T04:21:29;20.10;99.90
1225;DHT22;602;48.000;7.840;2022-08-19T04:23:57;20.10;99.90
1225;DHT22;602;48.000;7.840;2022-08-19T04:26:27;20.10;99.90
1225;DHT22;602;48.000;7.840;2022-08-19T04:28:55;20.10;99.90
1225;DHT22;602;48.000;7.840;2022-08-19T04:31:23;20.20;99.90
1225;DHT22;602;48.000;7.840;2022-08-19T04:33:51;20.20;99.90
1225;DHT22;602;48.000;7.840;2022-08-19T04:36:22;20.20;99.90
1225;DHT22;602;48.000;7.840;2022-08-19T04:38:50;20.30;99.90
1225;DHT22;602;48.000;7.840;2022-08-19T04:41:19;20.40;99.90
1225;DHT22;602;48.000;7.840;2022-08-19T04:44:04;20.40;99.90
1225;DHT22;602;48.000;7.840;2022-08-19T04:46:33;20.40;99.90
1225;DHT22;602;48.000;7.840;2022-08-19T04:49:01;20.40;99.90
1225;DHT22;602;48.000;7.840;2022-08-19T04:51:31;20.50;99.90
1225;DHT22;602;48.000;7.840;2022-08-19T04:53:58;20.40;99.90
1225;DHT22;602;48.000;7.840;2022-08-19T04:56:26;20.40;99.90
1225;DHT22;602;48.000;7.840;2022-08-19T04:58:54;20.30;99.90
1225;DHT22;602;48.000;7.840;2022-08-19T05:01:25;20.40;99.90
1225;DHT22;602;48.000;7.840;2022-08-19T05:03:54;20.40;99.90
1225;DHT22;602;48.000;7.840;2022-08-19T05:06:23;20.50;99.90
1225;DHT22;602;48.000;7.840;2022-08-19T05:08:50;20.40;99.90
1225;DHT22;602;48.000;7.840;2022-08-19T05:11:19;20.40;99.90
1225;DHT22;602;48.000;7.840;2022-08-19T05:13:47;20.30;99.90
1225;DHT22;602;48.000;7.840;2022-08-19T05:16:16;20.30;99.90
1225;DHT22;602;48.000;7.840;2022-08-19T05:18:45;20.40;99.90
1225;DHT22;602;48.000;7.840;2022-08-19T05:21:30;20.50;99.90
1225;DHT22;602;48.000;7.840;2022-08-19T05:24:16;20.50;99.90
1225;DHT22;602;48.000;7.840;2022-08-19T05:26:45;20.50;99.90
1225;DHT22;602;48.000;7.840;2022-08-19T05:29:13;20.60;99.90
1225;DHT22;602;48.000;7.840;2022-08-19T05:31:41;20.60;99.90
1225;DHT22;602;48.000;7.840;2022-08-19T05:34:09;20.60;99.90
1225;DHT22;602;48.000;7.840;2022-08-19T05:36:39;20.60;99.90
1225;DHT22;602;48.000;7.840;2022-08-19T05:39:07;20.50;99.90
1225;DHT22;602;48.000;7.840;2022-08-19T05:41:34;20.60;99.90
1225;DHT22;602;48.000;7.840;2022-08-19T05:44:03;20.70;99.90
1225;DHT22;602;48.000;7.840;2022-08-19T05:46:34;20.70;99.90
1225;DHT22;602;48.000;7.840;2022-08-19T05:49:03;20.80;99.90
1225;DHT22;602;48.000;7.840;2022-08-19T05:51:33;20.70;99.90
1225;DHT22;602;48.000;7.840;2022-08-19T05:54:01;20.80;99.90
1225;DHT22;602;48.000;7.840;2022-08-19T05:56:28;20.80;99.90
1225;DHT22;602;48.000;7.840;2022-08-19T05:58:57;20.80;99.90
1225;DHT22;602;48.000;7.840;2022-08-19T06:01:25;20.80;99.90
1225;DHT22;602;48.000;7.840;2022-08-19T06:03:53;20.80;99.90
1225;DHT22;602;48.000;7.840;2022-08-19T06:06:20;20.80;99.90
1225;DHT22;602;48.000;7.840;2022-08-19T06:08:49;20.90;99.90
1225;DHT22;602;48.000;7.840;2022-08-19T06:11:19;20.90;99.90
1225;DHT22;602;48.000;7.840;2022-08-19T06:13:47;20.90;99.90
1225;DHT22;602;48.000;7.840;2022-08-19T06:16:17;20.90;99.90
1225;DHT22;602;48.000;7.840;2022-08-19T06:18:48;20.90;99.90
1225;DHT22;602;48.000;7.840;2022-08-19T06:21:17;20.90;99.90
1225;DHT22;602;48.000;7.840;2022-08-19T06:23:44;20.90;99.90
1225;DHT22;602;48.000;7.840;2022-08-19T06:26:13;21.10;99.90
1225;DHT22;602;48.000;7.840;2022-08-19T06:28:41;21.10;99.90
1225;DHT22;602;48.000;7.840;2022-08-19T06:31:12;21.10;99.90
1225;DHT22;602;48.000;7.840;2022-08-19T06:33:40;21.10;99.90
1225;DHT22;602;48.000;7.840;2022-08-19T06:36:15;21.10;99.90
1225;DHT22;602;48.000;7.840;2022-08-19T06:38:42;21.10;99.90
1225;DHT22;602;48.000;7.840;2022-08-19T06:41:09;21.10;99.90
1225;DHT22;602;48.000;7.840;2022-08-19T06:43:38;21.20;99.90
1225;DHT22;602;48.000;7.840;2022-08-19T06:46:10;21.30;99.90
1225;DHT22;602;48.000;7.840;2022-08-19T06:48:38;21.20;99.90
1225;DHT22;602;48.000;7.840;2022-08-19T06:51:05;21.30;99.90
1225;DHT22;602;48.000;7.840;2022-08-19T06:53:32;21.40;99.90
1225;DHT22;602;48.000;7.840;2022-08-19T06:56:00;21.40;99.90
1225;DHT22;602;48.000;7.840;2022-08-19T06:58:28;21.40;99.90
1225;DHT22;602;48.000;7.840;2022-08-19T07:00:59;21.40;99.90
1225;DHT22;602;48.000;7.840;2022-08-19T07:03:29;21.40;99.90
1225;DHT22;602;48.000;7.840;2022-08-19T07:05:58;21.40;99.90
1225;DHT22;602;48.000;7.840;2022-08-19T07:08:28;21.40;99.90
1225;DHT22;602;48.000;7.840;2022-08-19T07:10:55;21.50;99.90
1225;DHT22;602;48.000;7.840;2022-08-19T07:13:23;21.50;99.90
1225;DHT22;602;48.000;7.840;2022-08-19T07:15:50;21.50;99.90
1225;DHT22;602;48.000;7.840;2022-08-19T07:18:19;21.50;99.90
1225;DHT22;602;48.000;7.840;2022-08-19T07:20:47;21.50;99.90
1225;DHT22;602;48.000;7.840;2022-08-19T07:23:14;21.50;99.90
1225;DHT22;602;48.000;7.840;2022-08-19T07:25:41;21.50;99.90
1225;DHT22;602;48.000;7.840;2022-08-19T07:28:08;21.50;99.90
1225;DHT22;602;48.000;7.840;2022-08-19T07:30:37;21.60;99.90
1225;DHT22;602;48.000;7.840;2022-08-19T07:33:06;21.60;99.90
1225;DHT22;602;48.000;7.840;2022-08-19T07:35:34;21.60;99.90
1225;DHT22;602;48.000;7.840;2022-08-19T07:38:01;21.60;99.90
1225;DHT22;602;48.000;7.840;2022-08-19T07:40:30;21.60;99.90
1225;DHT22;602;48.000;7.840;2022-08-19T07:42:57;21.70;99.90
1225;DHT22;602;48.000;7.840;2022-08-19T07:45:24;21.70;99.90
1225;DHT22;602;48.000;7.840;2022-08-19T07:47:51;21.60;99.90
1225;DHT22;602;48.000;7.840;2022-08-19T07:50:18;21.70;99.90
1225;DHT22;602;48.000;7.840;2022-08-19T07:52:47;21.70;99.90
1225;DHT22;602;48.000;7.840;2022-08-19T07:55:17;21.80;99.90
1225;DHT22;602;48.000;7.840;2022-08-19T07:57:45;21.80;99.90
1225;DHT22;602;48.000;7.840;2022-08-19T08:00:13;21.90;99.90
1225;DHT22;602;48.000;7.840;2022-08-19T08:02:40;22.00;99.90
1225;DHT22;602;48.000;7.840;2022-08-19T08:05:08;22.00;99.90
1225;DHT22;602;48.000;7.840;2022-08-19T08:07:54;22.10;99.90
1225;DHT22;602;48.000;7.840;2022-08-19T08:10:38;22.10;99.90
1225;DHT22;602;48.000;7.840;2022-08-19T08:13:05;22.10;99.90
1225;DHT22;602;48.000;7.840;2022-08-19T08:15:32;22.20;99.90
1225;DHT22;602;48.000;7.840;2022-08-19T08:17:59;22.20;99.90
1225;DHT22;602;48.000;7.840;2022-08-19T08:20:26;22.20;99.90
1225;DHT22;602;48.000;7.840;2022-08-19T08:22:54;22.20;99.90
1225;DHT22;602;48.000;7.840;2022-08-19T08:25:39;22.20;99.90
1225;DHT22;602;48.000;7.840;2022-08-19T08:28:06;22.20;99.90
1225;DHT22;602;48.000;7.840;2022-08-19T08:30:34;22.30;99.90
1225;DHT22;602;48.000;7.840;2022-08-19T08:33:03;22.20;99.90
1225;DHT22;602;48.000;7.840;2022-08-19T08:35:30;22.30;99.90
1225;DHT22;602;48.000;7.840;2022-08-19T08:38:00;22.30;99.90
1225;DHT22;602;48.000;7.840;2022-08-19T08:40:30;22.30;99.90
1225;DHT22;602;48.000;7.840;2022-08-19T08:43:03;22.40;99.90
1225;DHT22;602;48.000;7.840;2022-08-19T08:45:36;22.30;99.90
1225;DHT22;602;48.000;7.840;2022-08-19T08:48:13;22.40;99.90
1225;DHT22;602;48.000;7.840;2022-08-19T08:50:43;22.30;99.90
1225;DHT22;602;48.000;7.840;2022-08-19T08:53:16;22.40;99.90
1225;DHT22;602;48.000;7.840;2022-08-19T08:55:44;22.50;99.90
1225;DHT22;602;48.000;7.840;2022-08-19T08:58:15;22.40;99.90
1225;DHT22;602;48.000;7.840;2022-08-19T09:00:47;22.40;99.90
1225;DHT22;602;48.000;7.840;2022-08-19T09:03:18;22.50;99.90
1225;DHT22;602;48.000;7.840;2022-08-19T09:05:56;22.50;99.90
1225;DHT22;602;48.000;7.840;2022-08-19T09:08:33;22.60;99.90
1225;DHT22;602;48.000;7.840;2022-08-19T09:11:08;22.60;99.90
1225;DHT22;602;48.000;7.840;2022-08-19T09:13:44;22.60;99.90
1225;DHT22;602;48.000;7.840;2022-08-19T09:16:16;22.60;99.90
1225;DHT22;602;48.000;7.840;2022-08-19T09:18:45;22.70;99.90
1225;DHT22;602;48.000;7.840;2022-08-19T09:21:12;22.70;99.90
1225;DHT22;602;48.000;7.840;2022-08-19T09:23:41;22.70;99.90
1225;DHT22;602;48.000;7.840;2022-08-19T09:26:09;22.70;99.90
1225;DHT22;602;48.000;7.840;2022-08-19T09:28:39;22.80;99.90
1225;DHT22;602;48.000;7.840;2022-08-19T09:31:07;22.70;99.90
1225;DHT22;602;48.000;7.840;2022-08-19T09:33:34;22.80;99.90
1225;DHT22;602;48.000;7.840;2022-08-19T09:36:03;22.90;99.90
1225;DHT22;602;48.000;7.840;2022-08-19T09:38:30;22.90;99.90
1225;DHT22;602;48.000;7.840;2022-08-19T09:41:03;22.90;99.90
1225;DHT22;602;48.000;7.840;2022-08-19T09:43:31;23.00;99.90
1225;DHT22;602;48.000;7.840;2022-08-19T09:45:59;23.10;99.90
1225;DHT22;602;48.000;7.840;2022-08-19T09:48:26;23.20;99.90
1225;DHT22;602;48.000;7.840;2022-08-19T09:50:53;23.10;99.90
1225;DHT22;602;48.000;7.840;2022-08-19T09:53:20;23.20;99.90
1225;DHT22;602;48.000;7.840;2022-08-19T09:55:48;23.30;99.90
1225;DHT22;602;48.000;7.840;2022-08-19T09:58:17;23.30;99.90
1225;DHT22;602;48.000;7.840;2022-08-19T10:00:44;23.30;99.90
1225;DHT22;602;48.000;7.840;2022-08-19T10:03:11;23.30;99.90
1225;DHT22;602;48.000;7.840;2022-08-19T10:05:38;23.30;99.90
1225;DHT22;602;48.000;7.840;2022-08-19T10:08:19;23.50;99.90
1225;DHT22;602;48.000;7.840;2022-08-19T10:10:46;23.50;99.90
1225;DHT22;602;48.000;7.840;2022-08-19T10:13:15;23.60;99.90
1225;DHT22;602;48.000;7.840;2022-08-19T10:15:43;23.80;99.90
1225;DHT22;602;48.000;7.840;2022-08-19T10:18:10;23.90;99.90
1225;DHT22;602;48.000;7.840;2022-08-19T10:20:37;24.00;99.90
1225;DHT22;602;48.000;7.840;2022-08-19T10:23:04;24.10;99.90
1225;DHT22;602;48.000;7.840;2022-08-19T10:25:32;24.20;99.90
1225;DHT22;602;48.000;7.840;2022-08-19T10:28:00;24.10;99.90
1225;DHT22;602;48.000;7.840;2022-08-19T10:30:27;24.20;99.90
1225;DHT22;602;48.000;7.840;2022-08-19T10:32:55;24.30;99.90
1225;DHT22;602;48.000;7.840;2022-08-19T10:35:22;24.30;99.90
1225;DHT22;602;48.000;7.840;2022-08-19T10:37:52;24.40;99.90
1225;DHT22;602;48.000;7.840;2022-08-19T10:40:19;24.40;99.90
1225;DHT22;602;48.000;7.840;2022-08-19T10:42:46;24.40;99.90
1225;DHT22;602;48.000;7.840;2022-08-19T10:45:13;24.50;99.90
1225;DHT22;602;48.000;7.840;2022-08-19T10:47:39;24.60;99.90
1225;DHT22;602;48.000;7.840;2022-08-19T10:50:08;24.70;99.90
1225;DHT22;602;48.000;7.840;2022-08-19T10:52:52;24.70;99.90
1225;DHT22;602;48.000;7.840;2022-08-19T10:55:22;24.70;99.90
1225;DHT22;602;48.000;7.840;2022-08-19T10:58:11;24.80;99.90
1225;DHT22;602;48.000;7.840;2022-08-19T11:00:38;24.80;99.90
1225;DHT22;602;48.000;7.840;2022-08-19T11:03:06;24.80;99.90
1225;DHT22;602;48.000;7.840;2022-08-19T11:05:35;24.90;99.90
1225;DHT22;602;48.000;7.840;2022-08-19T11:08:04;25.00;99.90
1225;DHT22;602;48.000;7.840;2022-08-19T11:10:32;24.90;99.90
1225;DHT22;602;48.000;7.840;2022-08-19T11:12:59;24.90;99.90
1225;DHT22;602;48.000;7.840;2022-08-19T11:15:26;25.00;99.90
1225;DHT22;602;48.000;7.840;2022-08-19T11:17:54;25.20;99.90
1225;DHT22;602;48.000;7.840;2022-08-19T11:20:21;25.40;99.90
1225;DHT22;602;48.000;7.840;2022-08-19T11:22:51;25.50;99.90
1225;DHT22;602;48.000;7.840;2022-08-19T11:25:19;25.60;99.90
1225;DHT22;602;48.000;7.840;2022-08-19T11:27:46;25.70;99.90
1225;DHT22;602;48.000;7.840;2022-08-19T11:30:16;25.80;99.90
1225;DHT22;602;48.000;7.840;2022-08-19T11:32:43;25.90;99.90
1225;DHT22;602;48.000;7.840;2022-08-19T11:35:10;26.10;99.90
1225;DHT22;602;48.000;7.840;2022-08-19T11:37:37;26.20;99.90
1225;DHT22;602;48.000;7.840;2022-08-19T11:40:07;26.30;99.90
1225;DHT22;602;48.000;7.840;2022-08-19T11:42:34;26.30;99.90
1225;DHT22;602;48.000;7.840;2022-08-19T11:45:19;26.20;99.90
1225;DHT22;602;48.000;7.840;2022-08-19T11:47:46;26.30;99.90
1225;DHT22;602;48.000;7.840;2022-08-19T11:50:14;26.50;99.90
1225;DHT22;602;48.000;7.840;2022-08-19T11:52:41;26.50;99.90
1225;DHT22;602;48.000;7.840;2022-08-19T11:55:12;26.60;99.90
1225;DHT22;602;48.000;7.840;2022-08-19T11:57:39;26.70;99.90
1225;DHT22;602;48.000;7.840;2022-08-19T12:00:07;26.90;99.90
1225;DHT22;602;48.000;7.840;2022-08-19T12:02:34;27.00;99.90
1225;DHT22;602;48.000;7.840;2022-08-19T12:05:01;26.80;99.90
1225;DHT22;602;48.000;7.840;2022-08-19T12:07:28;26.90;99.90
1225;DHT22;602;48.000;7.840;2022-08-19T12:09:58;27.00;99.90
1225;DHT22;602;48.000;7.840;2022-08-19T12:12:27;27.10;99.90
1225;DHT22;602;48.000;7.840;2022-08-19T12:14:54;27.30;99.90
1225;DHT22;602;48.000;7.840;2022-08-19T12:17:24;27.40;99.90
1225;DHT22;602;48.000;7.840;2022-08-19T12:19:51;27.60;99.90
1225;DHT22;602;48.000;7.840;2022-08-19T12:22:18;27.50;99.90
1225;DHT22;602;48.000;7.840;2022-08-19T12:24:46;27.60;99.90
1225;DHT22;602;48.000;7.840;2022-08-19T12:27:15;27.60;99.90
1225;DHT22;602;48.000;7.840;2022-08-19T12:29:43;27.60;99.90
1225;DHT22;602;48.000;7.840;2022-08-19T12:32:10;27.80;99.90
1225;DHT22;602;48.000;7.840;2022-08-19T12:34:37;27.80;99.90
1225;DHT22;602;48.000;7.840;2022-08-19T12:37:05;28.10;99.90
1225;DHT22;602;48.000;7.840;2022-08-19T12:39:37;28.20;99.90
1225;DHT22;602;48.000;7.840;2022-08-19T12:42:05;28.30;99.90
1225;DHT22;602;48.000;7.840;2022-08-19T12:44:34;28.40;99.90
1225;DHT22;602;48.000;7.840;2022-08-19T12:47:02;28.40;99.90
1225;DHT22;602;48.000;7.840;2022-08-19T12:49:30;28.40;99.90
1225;DHT22;602;48.000;7.840;2022-08-19T12:51:59;28.10;99.90
1225;DHT22;602;48.000;7.840;2022-08-19T12:54:26;28.00;99.90
1225;DHT22;602;48.000;7.840;2022-08-19T12:56:53;28.20;99.90
1225;DHT22;602;48.000;7.840;2022-08-19T12:59:19;28.40;99.90
1225;DHT22;602;48.000;7.840;2022-08-19T13:01:46;28.30;99.90
1225;DHT22;602;48.000;7.840;2022-08-19T13:04:14;28.30;99.90
1225;DHT22;602;48.000;7.840;2022-08-19T13:06:41;28.30;99.90
1225;DHT22;602;48.000;7.840;2022-08-19T13:09:08;28.30;99.90
1225;DHT22;602;48.000;7.840;2022-08-19T13:11:37;28.30;99.90
1225;DHT22;602;48.000;7.840;2022-08-19T13:14:04;28.40;99.90
1225;DHT22;602;48.000;7.840;2022-08-19T13:16:31;28.50;99.90
1225;DHT22;602;48.000;7.840;2022-08-19T13:18:58;28.50;99.90
1225;DHT22;602;48.000;7.840;2022-08-19T13:21:29;28.60;99.90
1225;DHT22;602;48.000;7.840;2022-08-19T13:23:56;28.60;99.90
1225;DHT22;602;48.000;7.840;2022-08-19T13:26:23;28.50;99.90
1225;DHT22;602;48.000;7.840;2022-08-19T13:28:57;28.50;99.90
1225;DHT22;602;48.000;7.840;2022-08-19T13:31:42;28.50;99.90
1225;DHT22;602;48.000;7.840;2022-08-19T13:34:29;28.40;99.90
1225;DHT22;602;48.000;7.840;2022-08-19T13:36:58;28.50;99.90
1225;DHT22;602;48.000;7.840;2022-08-19T13:39:28;28.50;99.90
1225;DHT22;602;48.000;7.840;2022-08-19T13:41:55;28.50;99.90
1225;DHT22;602;48.000;7.840;2022-08-19T13:44:23;28.60;99.90
1225;DHT22;602;48.000;7.840;2022-08-19T13:46:49;28.70;99.90
1225;DHT22;602;48.000;7.840;2022-08-19T13:49:18;28.80;99.90
1225;DHT22;602;48.000;7.840;2022-08-19T13:51:45;28.80;99.90
1225;DHT22;602;48.000;7.840;2022-08-19T13:54:14;28.80;99.90
1225;DHT22;602;48.000;7.840;2022-08-19T13:56:42;28.90;99.90
1225;DHT22;602;48.000;7.840;2022-08-19T13:59:10;28.90;99.90
1225;DHT22;602;48.000;7.840;2022-08-19T14:01:37;28.80;99.90
1225;DHT22;602;48.000;7.840;2022-08-19T14:04:04;28.80;99.90
1225;DHT22;602;48.000;7.840;2022-08-19T14:06:32;28.70;99.90
1225;DHT22;602;48.000;7.840;2022-08-19T14:08:59;28.50;99.90
1225;DHT22;602;48.000;7.840;2022-08-19T14:11:28;28.60;99.90
1225;DHT22;602;48.000;7.840;2022-08-19T14:13:56;28.60;99.90
1225;DHT22;602;48.000;7.840;2022-08-19T14:16:23;28.40;99.90
1225;DHT22;602;48.000;7.840;2022-08-19T14:18:50;28.50;99.90
1225;DHT22;602;48.000;7.840;2022-08-19T14:21:20;28.40;99.90
1225;DHT22;602;48.000;7.840;2022-08-19T14:23:49;28.40;99.90
1225;DHT22;602;48.000;7.840;2022-08-19T14:26:17;28.20;99.90
1225;DHT22;602;48.000;7.840;2022-08-19T14:28:46;28.20;99.90
1225;DHT22;602;48.000;7.840;2022-08-19T14:31:15;28.20;99.90
1225;DHT22;602;48.000;7.840;2022-08-19T14:33:44;28.20;99.90
1225;DHT22;602;48.000;7.840;2022-08-19T14:36:11;28.10;99.90
1225;DHT22;602;48.000;7.840;2022-08-19T14:38:38;28.00;99.90
1225;DHT22;602;48.000;7.840;2022-08-19T14:41:07;28.00;99.90
1225;DHT22;602;48.000;7.840;2022-08-19T14:43:34;27.90;99.90
1225;DHT22;602;48.000;7.840;2022-08-19T14:46:03;27.90;99.90
1225;DHT22;602;48.000;7.840;2022-08-19T14:48:30;27.80;99.90
1225;DHT22;602;48.000;7.840;2022-08-19T14:50:56;27.90;99.90
1225;DHT22;602;48.000;7.840;2022-08-19T14:53:23;27.80;99.90
1225;DHT22;602;48.000;7.840;2022-08-19T14:55:51;27.70;99.90
1225;DHT22;602;48.000;7.840;2022-08-19T14:58:18;27.50;99.90
1225;DHT22;602;48.000;7.840;2022-08-19T15:00:45;27.40;99.90
1225;DHT22;602;48.000;7.840;2022-08-19T15:03:13;27.20;99.90
1225;DHT22;602;48.000;7.840;2022-08-19T15:05:40;27.20;99.90
1225;DHT22;602;48.000;7.840;2022-08-19T15:08:07;27.10;99.90
1225;DHT22;602;48.000;7.840;2022-08-19T15:10:34;27.10;99.90
1225;DHT22;602;48.000;7.840;2022-08-19T15:13:01;27.00;99.90
1225;DHT22;602;48.000;7.840;2022-08-19T15:15:27;26.80;99.90
1225;DHT22;602;48.000;7.840;2022-08-19T15:17:54;26.70;99.90
1225;DHT22;602;48.000;7.840;2022-08-19T15:20:29;26.50;99.90
1225;DHT22;602;48.000;7.840;2022-08-19T15:22:56;26.40;99.90
1225;DHT22;602;48.000;7.840;2022-08-19T15:25:24;26.30;99.90
1225;DHT22;602;48.000;7.840;2022-08-19T15:27:51;26.30;99.90
1225;DHT22;602;48.000;7.840;2022-08-19T15:30:21;26.20;99.90
1225;DHT22;602;48.000;7.840;2022-08-19T15:32:48;26.20;99.90
1225;DHT22;602;48.000;7.840;2022-08-19T15:35:18;26.20;99.90
1225;DHT22;602;48.000;7.840;2022-08-19T15:37:48;26.10;99.90
1225;DHT22;602;48.000;7.840;2022-08-19T15:40:17;26.10;99.90
1225;DHT22;602;48.000;7.840;2022-08-19T15:42:44;26.00;99.90
1225;DHT22;602;48.000;7.840;2022-08-19T15:45:13;26.00;99.90
1225;DHT22;602;48.000;7.840;2022-08-19T15:47:40;25.90;99.90
1225;DHT22;602;48.000;7.840;2022-08-19T15:50:08;25.80;99.90
1225;DHT22;602;48.000;7.840;2022-08-19T15:52:35;25.90;99.90
1225;DHT22;602;48.000;7.840;2022-08-19T15:55:04;25.90;99.90
1225;DHT22;602;48.000;7.840;2022-08-19T15:57:32;25.90;99.90
1225;DHT22;602;48.000;7.840;2022-08-19T16:00:16;25.90;99.90
1225;DHT22;602;48.000;7.840;2022-08-19T16:03:00;25.80;99.90
1225;DHT22;602;48.000;7.840;2022-08-19T16:05:45;25.70;99.90
1225;DHT22;602;48.000;7.840;2022-08-19T16:08:29;25.80;99.90
1225;DHT22;602;48.000;7.840;2022-08-19T16:10:57;25.80;99.90
1225;DHT22;602;48.000;7.840;2022-08-19T16:13:24;25.70;99.90
1225;DHT22;602;48.000;7.840;2022-08-19T16:15:51;25.70;99.90
1225;DHT22;602;48.000;7.840;2022-08-19T16:18:21;25.60;99.90
1225;DHT22;602;48.000;7.840;2022-08-19T16:20:49;25.50;99.90
1225;DHT22;602;48.000;7.840;2022-08-19T16:23:16;25.60;99.90
1225;DHT22;602;48.000;7.840;2022-08-19T16:25:43;25.60;99.90
1225;DHT22;602;48.000;7.840;2022-08-19T16:28:11;25.70;99.90